createdAt,value
2017-09-20T00:01:41.935Z,13.25
2017-09-20T00:04:10.227Z,12.65
2017-09-20T00:06:38.483Z,13.27
2017-09-20T00:09:06.745Z,11.82
2017-09-20T00:11:34.242Z,12.75
2017-09-20T00:14:01.727Z,11.85
2017-09-20T00:16:29.229Z,12.48
2017-09-20T00:18:56.716Z,12.37
2017-09-20T00:21:24.228Z,10.50
2017-09-20T00:23:51.719Z,10.75
2017-09-20T00:26:19.990Z,11.45
2017-09-20T00:28:48.240Z,12.00
2017-09-20T00:31:15.764Z,10.70
2017-09-20T00:33:43.249Z,10.80
2017-09-20T00:36:10.747Z,12.70
2017-09-20T00:38:38.997Z,11.25
2017-09-20T00:41:07.351Z,10.85
2017-09-20T00:43:34.842Z,11.95
2017-09-20T00:46:03.124Z,12.05
2017-09-20T00:48:31.372Z,10.52
2017-09-20T00:50:58.860Z,11.68
2017-09-20T00:53:26.361Z,10.93
2017-09-20T00:55:53.849Z,11.00
2017-09-20T00:58:21.339Z,11.12
2017-09-20T01:00:48.857Z,12.15
2017-09-20T01:03:16.352Z,11.48
2017-09-20T01:05:43.855Z,11.27
2017-09-20T01:08:11.368Z,10.98
2017-09-20T01:10:38.863Z,11.20
2017-09-20T01:13:06.359Z,11.25
2017-09-20T01:15:33.840Z,11.32
2017-09-20T01:18:02.157Z,13.25
2017-09-20T01:20:41.507Z,12.27
2017-09-20T01:23:19.973Z,11.73
2017-09-20T01:25:47.467Z,11.20
2017-09-20T01:28:14.967Z,12.40
2017-09-20T01:30:43.212Z,12.37
2017-09-20T01:33:10.720Z,14.38
2017-09-20T01:35:38.221Z,15.10
2017-09-20T01:38:05.702Z,12.65
2017-09-20T01:40:33.203Z,14.32
2017-09-20T01:43:00.679Z,13.68
2017-09-20T01:45:28.193Z,12.63
2017-09-20T01:47:56.443Z,12.20
2017-09-20T01:50:23.943Z,14.30
2017-09-20T01:52:51.427Z,13.38
2017-09-20T01:55:18.931Z,13.60
2017-09-20T01:57:46.415Z,12.90
2017-09-20T02:00:13.903Z,12.35
2017-09-20T02:02:41.383Z,12.13
2017-09-20T02:05:08.895Z,12.35
2017-09-20T02:07:36.387Z,12.73
2017-09-20T02:10:04.653Z,12.50
2017-09-20T02:12:32.153Z,11.50
2017-09-20T02:14:59.635Z,10.85
2017-09-20T02:17:27.127Z,11.75
2017-09-20T02:19:54.616Z,11.65
2017-09-20T02:22:22.136Z,11.75
2017-09-20T02:24:49.616Z,12.20
2017-09-20T02:27:17.105Z,10.00
2017-09-20T02:29:45.357Z,10.60
2017-09-20T02:32:12.852Z,10.30
2017-09-20T02:34:41.123Z,11.30
2017-09-20T02:37:09.393Z,10.60
2017-09-20T02:39:36.876Z,9.90
2017-09-20T02:42:04.363Z,10.68
2017-09-20T02:44:32.617Z,10.10
2017-09-20T02:47:00.113Z,9.57
2017-09-20T02:49:27.602Z,9.57
2017-09-20T02:51:55.859Z,9.55
2017-09-20T02:54:23.348Z,10.07
2017-09-20T02:56:50.860Z,10.30
2017-09-20T02:59:18.348Z,11.00
2017-09-20T03:01:46.607Z,10.68
2017-09-20T03:04:14.163Z,10.88
2017-09-20T03:06:41.647Z,10.63
2017-09-20T03:09:09.911Z,9.15
2017-09-20T03:11:38.175Z,9.68
2017-09-20T03:14:05.668Z,10.52
2017-09-20T03:16:33.153Z,11.12
2017-09-20T03:19:00.662Z,10.95
2017-09-20T03:21:28.168Z,11.68
2017-09-20T03:23:55.676Z,12.70
2017-09-20T03:26:23.940Z,10.82
2017-09-20T03:28:51.462Z,11.70
2017-09-20T03:31:18.960Z,10.52
2017-09-20T03:33:46.468Z,11.27
2017-09-20T03:36:13.976Z,11.18
2017-09-20T03:38:41.488Z,10.15
2017-09-20T03:41:08.991Z,10.15
2017-09-20T03:43:36.481Z,10.57
2017-09-20T03:46:04.002Z,12.20
2017-09-20T03:48:31.484Z,10.82
2017-09-20T03:50:59.000Z,10.07
2017-09-20T03:53:26.492Z,11.35
2017-09-20T03:55:54.765Z,9.38
2017-09-20T03:58:22.268Z,9.20
2017-09-20T04:00:49.830Z,9.23
2017-09-20T04:03:17.320Z,9.88
2017-09-20T04:05:44.821Z,9.18
2017-09-20T04:08:12.316Z,9.00
2017-09-20T04:10:39.820Z,8.35
2017-09-20T04:13:08.071Z,8.60
2017-09-20T04:15:35.558Z,8.00
2017-09-20T04:18:03.829Z,7.97
2017-09-20T04:20:31.324Z,7.78
2017-09-20T04:22:58.845Z,6.12
2017-09-20T04:25:26.339Z,6.10
2017-09-20T04:27:53.846Z,7.18
2017-09-20T04:30:22.119Z,6.37
2017-09-20T04:32:49.647Z,6.28
2017-09-20T04:35:17.145Z,6.43
2017-09-20T04:37:45.425Z,5.78
2017-09-20T04:40:13.683Z,5.00
2017-09-20T04:42:41.205Z,5.90
2017-09-20T04:45:08.737Z,5.00
2017-09-20T04:47:36.243Z,5.35
2017-09-20T04:50:03.730Z,4.95
2017-09-20T04:52:31.246Z,4.78
2017-09-20T04:54:58.767Z,5.40
2017-09-20T04:57:26.258Z,5.00
2017-09-20T04:59:53.760Z,4.55
2017-09-20T05:02:22.048Z,4.20
2017-09-20T05:04:49.599Z,4.87
2017-09-20T05:07:17.872Z,4.55
2017-09-20T05:09:45.427Z,4.97
2017-09-20T05:12:13.703Z,4.40
2017-09-20T05:14:41.992Z,4.22
2017-09-20T05:17:09.511Z,5.18
2017-09-20T05:19:37.015Z,4.30
2017-09-20T05:22:04.506Z,5.97
2017-09-20T05:24:32.019Z,5.00
2017-09-20T05:26:59.539Z,4.25
2017-09-20T05:29:27.118Z,5.35
2017-09-20T05:31:54.632Z,6.07
2017-09-20T05:34:22.132Z,5.20
2017-09-20T05:36:49.646Z,6.43
2017-09-20T05:39:17.155Z,4.93
2017-09-20T05:41:44.670Z,7.00
2017-09-20T05:44:12.152Z,6.32
2017-09-20T05:46:39.652Z,6.70
2017-09-20T05:49:07.142Z,7.10
2017-09-20T05:51:34.680Z,6.60
2017-09-20T05:54:05.004Z,7.03
2017-09-20T05:56:32.808Z,7.72
2017-09-20T05:59:00.318Z,6.85
2017-09-20T06:01:27.874Z,7.55
2017-09-20T06:03:55.358Z,8.02
2017-09-20T06:06:22.887Z,9.27
2017-09-20T06:08:50.384Z,7.95
2017-09-20T06:11:17.898Z,7.75
2017-09-20T06:13:45.398Z,9.63
2017-09-20T06:16:12.913Z,9.30
2017-09-20T06:18:40.435Z,9.68
2017-09-20T06:21:07.944Z,7.72
2017-09-20T06:23:35.460Z,7.30
2017-09-20T06:26:02.949Z,7.45
2017-09-20T06:28:31.266Z,5.97
2017-09-20T06:30:58.785Z,7.25
2017-09-20T06:33:26.309Z,6.50
2017-09-20T06:35:53.819Z,6.30
2017-09-20T06:38:21.329Z,6.40
2017-09-20T06:40:48.833Z,5.07
2017-09-20T06:43:16.336Z,5.20
2017-09-20T06:45:43.839Z,5.05
2017-09-20T06:48:11.369Z,5.30
2017-09-20T06:50:38.865Z,5.55
2017-09-20T06:53:06.398Z,5.18
2017-09-20T06:55:33.895Z,5.95
2017-09-20T06:58:01.449Z,6.93
2017-09-20T07:00:29.020Z,5.18
2017-09-20T07:02:56.524Z,6.22
2017-09-20T07:05:24.790Z,6.40
2017-09-20T07:07:53.110Z,7.03
2017-09-20T07:10:20.624Z,5.87
2017-09-20T07:12:48.119Z,5.15
2017-09-20T07:15:15.619Z,6.65
2017-09-20T07:17:43.096Z,6.20
2017-09-20T07:20:11.375Z,6.05
2017-09-20T07:22:39.656Z,5.60
2017-09-20T07:25:07.152Z,5.75
2017-09-20T07:27:34.627Z,4.70
2017-09-20T07:30:02.171Z,5.53
2017-09-20T07:32:29.668Z,4.65
2017-09-20T07:34:57.167Z,5.28
2017-09-20T07:37:24.698Z,4.55
2017-09-20T07:39:52.195Z,4.20
2017-09-20T07:42:19.688Z,4.78
2017-09-20T07:44:47.189Z,3.90
2017-09-20T07:47:14.691Z,5.45
2017-09-20T07:49:42.183Z,4.57
2017-09-20T07:52:10.459Z,4.40
2017-09-20T07:54:37.935Z,5.10
2017-09-20T07:57:05.441Z,4.57
2017-09-20T07:59:32.935Z,4.53
2017-09-20T08:02:00.447Z,4.93
2017-09-20T08:04:27.979Z,5.72
2017-09-20T08:06:55.475Z,5.00
2017-09-20T08:09:22.968Z,4.45
2017-09-20T08:11:50.489Z,4.30
2017-09-20T08:14:17.963Z,4.43
2017-09-20T08:16:45.469Z,3.95
2017-09-20T08:19:12.958Z,4.07
2017-09-20T08:21:40.444Z,3.72
2017-09-20T08:24:07.948Z,3.30
2017-09-20T08:26:35.445Z,3.80
2017-09-20T08:29:02.944Z,2.72
2017-09-20T08:31:31.200Z,3.10
2017-09-20T08:33:58.715Z,3.15
2017-09-20T08:36:26.296Z,4.25
2017-09-20T08:38:53.816Z,3.10
2017-09-20T08:41:21.304Z,3.03
2017-09-20T08:43:48.811Z,3.10
2017-09-20T08:46:17.066Z,2.67
2017-09-20T08:48:44.591Z,2.75
2017-09-20T08:51:12.080Z,2.70
2017-09-20T08:53:39.571Z,2.72
2017-09-20T08:56:07.082Z,2.17
2017-09-20T08:58:34.594Z,2.60
2017-09-20T09:01:02.100Z,2.58
2017-09-20T09:03:29.589Z,2.25
2017-09-20T09:05:57.874Z,2.30
2017-09-20T09:08:25.373Z,2.50
2017-09-20T09:10:52.929Z,3.78
2017-09-20T09:13:20.420Z,2.62
2017-09-20T09:15:47.936Z,3.05
2017-09-20T09:18:15.424Z,2.70
2017-09-20T09:20:42.944Z,3.50
2017-09-20T09:23:10.461Z,2.95
2017-09-20T09:25:38.062Z,2.97
2017-09-20T09:28:05.544Z,3.15
2017-09-20T09:30:33.019Z,3.30
2017-09-20T09:33:00.570Z,3.00
2017-09-20T09:35:28.217Z,3.50
2017-09-20T09:37:55.760Z,3.33
2017-09-20T09:40:23.332Z,2.70
2017-09-20T09:42:50.865Z,3.55
2017-09-20T09:45:18.372Z,2.65
2017-09-20T09:47:45.870Z,3.12
2017-09-20T09:50:13.417Z,3.80
2017-09-20T09:52:40.933Z,3.10
2017-09-20T09:55:09.513Z,3.40
2017-09-20T09:57:37.038Z,3.28
2017-09-20T10:00:04.577Z,3.00
2017-09-20T10:02:32.120Z,3.00
2017-09-20T10:04:59.621Z,3.10
2017-09-20T10:07:27.136Z,3.15
2017-09-20T10:09:54.669Z,3.20
2017-09-20T10:12:22.276Z,3.58
2017-09-20T10:14:49.827Z,3.55
2017-09-20T10:17:18.119Z,3.30
2017-09-20T10:19:45.671Z,3.83
2017-09-20T10:22:13.191Z,3.30
2017-09-20T10:24:40.700Z,3.62
2017-09-20T10:27:08.233Z,3.05
2017-09-20T10:29:35.775Z,3.22
2017-09-20T10:32:03.318Z,3.22
2017-09-20T10:34:30.868Z,3.10
2017-09-20T10:36:58.446Z,2.92
2017-09-20T10:39:25.976Z,3.58
2017-09-20T10:41:53.551Z,3.60
2017-09-20T10:44:21.090Z,3.33
2017-09-20T10:46:48.698Z,3.47
2017-09-20T10:49:17.628Z,3.05
2017-09-20T10:51:45.136Z,3.10
2017-09-20T10:54:12.637Z,3.17
2017-09-20T10:56:40.188Z,3.55
2017-09-20T10:59:08.467Z,3.70
2017-09-20T11:04:09.800Z,2.70
2017-09-20T11:06:37.296Z,2.58
2017-09-20T11:09:04.862Z,3.20
2017-09-20T11:11:32.378Z,3.00
2017-09-20T11:14:00.661Z,2.92
2017-09-20T11:16:28.232Z,3.25
2017-09-20T11:18:55.735Z,3.10
2017-09-20T11:21:23.658Z,3.40
2017-09-20T11:23:51.188Z,3.20
2017-09-20T11:26:18.724Z,3.22
2017-09-20T11:28:46.222Z,3.80
2017-09-20T11:31:14.581Z,3.10
2017-09-20T11:33:42.111Z,3.50
2017-09-20T11:36:09.620Z,2.92
2017-09-20T11:38:37.911Z,3.60
2017-09-20T11:41:10.461Z,3.72
2017-09-20T11:43:38.048Z,3.47
2017-09-20T11:46:05.565Z,3.75
2017-09-20T11:48:33.096Z,3.15
2017-09-20T11:51:00.590Z,3.37
2017-09-20T11:53:28.179Z,3.35
2017-09-20T11:55:57.482Z,3.83
2017-09-20T11:58:25.094Z,3.60
2017-09-20T12:00:52.637Z,3.15
2017-09-20T12:03:20.164Z,3.05
2017-09-20T12:05:47.704Z,4.20
2017-09-20T12:08:15.363Z,3.42
2017-09-20T12:10:43.639Z,3.55
2017-09-20T12:13:11.222Z,3.25
2017-09-20T12:15:38.760Z,3.00
2017-09-20T12:18:06.321Z,3.10
2017-09-20T12:20:33.884Z,4.35
2017-09-20T12:23:01.423Z,3.35
2017-09-20T12:25:28.917Z,2.90
2017-09-20T12:27:56.544Z,3.08
2017-09-20T12:30:24.070Z,3.22
2017-09-20T12:32:51.681Z,3.47
2017-09-20T12:35:19.188Z,2.80
2017-09-20T12:37:46.718Z,3.80
2017-09-20T12:40:14.278Z,3.30
2017-09-20T12:42:41.845Z,3.00
2017-09-20T12:45:09.428Z,4.25
2017-09-20T12:47:36.912Z,3.42
2017-09-20T12:50:04.452Z,3.60
2017-09-20T12:52:31.956Z,3.10
2017-09-20T12:54:59.489Z,3.20
2017-09-20T12:57:27.781Z,3.40
2017-09-20T12:59:56.082Z,3.22
2017-09-20T13:02:23.633Z,2.83
2017-09-20T13:04:51.148Z,3.03
2017-09-20T13:07:18.692Z,2.80
2017-09-20T13:09:46.208Z,4.03
2017-09-20T13:12:13.729Z,3.00
2017-09-20T13:14:41.253Z,3.25
2017-09-20T13:17:08.776Z,3.47
2017-09-20T13:19:36.270Z,3.45
2017-09-20T13:22:03.791Z,3.37
2017-09-20T13:24:31.340Z,3.65
2017-09-20T13:26:58.882Z,3.45
2017-09-20T13:29:26.438Z,3.30
2017-09-20T13:31:53.978Z,3.42
2017-09-20T13:34:22.407Z,3.00
2017-09-20T13:36:49.944Z,3.70
2017-09-20T13:39:18.225Z,3.20
2017-09-20T13:41:46.504Z,2.80
2017-09-20T13:44:14.024Z,3.33
2017-09-20T13:46:41.558Z,2.95
2017-09-20T13:49:09.059Z,3.08
2017-09-20T13:51:36.559Z,3.58
2017-09-20T13:54:04.044Z,3.47
2017-09-20T13:56:31.611Z,3.80
2017-09-20T13:58:59.116Z,4.25
2017-09-20T14:01:26.621Z,4.40
2017-09-20T14:03:54.188Z,3.60
2017-09-20T14:06:21.687Z,4.28
2017-09-20T14:08:49.252Z,3.83
2017-09-20T14:11:16.772Z,4.97
2017-09-20T14:13:44.308Z,3.70
2017-09-20T14:16:11.825Z,4.22
2017-09-20T14:18:39.337Z,3.72
2017-09-20T14:21:06.834Z,3.70
2017-09-20T14:23:34.348Z,3.58
2017-09-20T14:26:01.868Z,3.92
2017-09-20T14:28:29.408Z,3.50
2017-09-20T14:30:57.684Z,3.67
2017-09-20T14:33:25.215Z,3.70
2017-09-20T14:35:52.738Z,3.90
2017-09-20T14:38:20.248Z,3.30
2017-09-20T14:40:48.546Z,3.45
2017-09-20T14:43:16.092Z,3.22
2017-09-20T14:45:43.657Z,4.22
2017-09-20T14:48:13.117Z,3.75
2017-09-20T14:50:40.665Z,4.60
2017-09-20T14:53:08.191Z,5.35
2017-09-20T14:55:35.723Z,4.35
2017-09-20T14:58:03.235Z,4.10
2017-09-20T15:00:30.760Z,5.00
2017-09-20T15:02:58.260Z,4.65
2017-09-20T15:05:25.780Z,4.72
2017-09-20T15:07:53.332Z,5.07
2017-09-20T15:10:20.899Z,4.80
2017-09-20T15:12:48.630Z,5.25
2017-09-20T15:15:16.157Z,4.85
2017-09-20T15:17:43.672Z,4.93
2017-09-20T15:20:11.226Z,4.82
2017-09-20T15:22:38.785Z,5.80
2017-09-20T15:25:06.307Z,5.78
2017-09-20T15:27:33.816Z,5.35
2017-09-20T15:30:01.362Z,5.62
2017-09-20T15:32:28.892Z,5.70
2017-09-20T15:34:56.402Z,5.35
2017-09-20T15:37:23.907Z,5.00
2017-09-20T15:39:51.439Z,5.75
2017-09-20T15:42:18.955Z,4.85
2017-09-20T15:44:46.473Z,6.32
2017-09-20T15:47:14.034Z,5.87
2017-09-20T15:49:41.523Z,6.47
2017-09-20T15:52:09.139Z,7.30
2017-09-20T15:54:36.633Z,8.98
2017-09-20T15:57:04.145Z,7.30
2017-09-20T15:59:31.649Z,5.65
2017-09-20T16:01:59.164Z,5.95
2017-09-20T16:04:31.583Z,6.35
2017-09-20T16:06:59.894Z,6.80
2017-09-20T16:09:27.490Z,6.00
2017-09-20T16:11:55.022Z,5.28
2017-09-20T16:14:22.529Z,5.87
2017-09-20T16:16:50.116Z,7.10
2017-09-20T16:19:17.617Z,6.90
2017-09-20T16:21:45.111Z,6.78
2017-09-20T16:24:13.486Z,6.43
2017-09-20T16:26:41.302Z,6.72
2017-09-20T16:29:08.884Z,7.50
2017-09-20T16:31:36.395Z,7.65
2017-09-20T16:34:03.952Z,7.30
2017-09-20T16:36:31.504Z,6.15
2017-09-20T16:38:59.046Z,7.05
2017-09-20T16:41:26.767Z,6.32
2017-09-20T16:43:54.343Z,6.07
2017-09-20T16:46:21.932Z,6.45
2017-09-20T16:48:50.775Z,7.12
2017-09-20T16:51:18.305Z,7.95
2017-09-20T16:53:46.453Z,7.37
2017-09-20T16:56:14.746Z,7.65
2017-09-20T16:58:42.407Z,7.20
2017-09-20T17:01:10.081Z,8.30
2017-09-20T17:03:37.645Z,9.50
2017-09-20T17:06:05.268Z,7.20
2017-09-20T17:08:32.857Z,8.18
2017-09-20T17:11:01.220Z,8.35
2017-09-20T17:13:28.771Z,7.87
2017-09-20T17:15:56.397Z,8.07
2017-09-20T17:18:24.024Z,7.75
2017-09-20T17:20:51.615Z,7.70
2017-09-20T17:23:19.637Z,8.32
2017-09-20T17:25:47.770Z,8.50
2017-09-20T17:28:15.630Z,8.23
2017-09-20T17:30:43.208Z,8.52
2017-09-20T17:33:12.009Z,7.95
2017-09-20T17:35:39.763Z,8.90
2017-09-20T17:38:07.677Z,9.30
2017-09-20T17:40:35.275Z,8.30
2017-09-20T17:43:04.718Z,8.68
2017-09-20T17:45:32.767Z,10.10
2017-09-20T17:48:00.530Z,9.23
2017-09-20T17:50:28.471Z,9.18
2017-09-20T17:52:56.153Z,9.52
2017-09-20T17:55:23.836Z,8.05
2017-09-20T17:57:51.476Z,8.80
2017-09-20T18:00:19.060Z,8.55
2017-09-20T18:02:46.686Z,7.93
2017-09-20T18:05:14.337Z,7.35
2017-09-20T18:07:41.899Z,7.75
2017-09-20T18:10:09.480Z,7.85
2017-09-20T18:12:37.019Z,10.25
2017-09-20T18:15:04.674Z,10.00
2017-09-20T18:17:33.235Z,8.48
2017-09-20T18:20:00.775Z,8.63
2017-09-20T18:22:28.405Z,10.10
2017-09-20T18:24:56.197Z,9.27
2017-09-20T18:27:23.787Z,8.50
2017-09-20T18:29:51.369Z,8.80
2017-09-20T18:32:18.867Z,8.43
2017-09-20T18:34:47.191Z,8.30
2017-09-20T18:37:14.707Z,8.55
2017-09-20T18:39:42.299Z,9.65
2017-09-20T18:42:09.833Z,10.23
2017-09-20T18:44:37.369Z,11.20
2017-09-20T18:47:04.903Z,10.90
2017-09-20T18:49:32.467Z,10.82
2017-09-20T18:52:00.146Z,11.43
2017-09-20T18:54:27.992Z,11.93
2017-09-20T18:56:55.953Z,11.57
2017-09-20T18:59:23.516Z,13.07
2017-09-20T19:01:51.041Z,10.90
2017-09-20T19:04:18.639Z,12.75
2017-09-20T19:06:46.359Z,13.20
2017-09-20T19:09:13.883Z,13.95
2017-09-20T19:11:41.562Z,14.73
2017-09-20T19:14:09.172Z,14.45
2017-09-20T19:16:36.742Z,13.77
2017-09-20T19:19:04.397Z,15.52
2017-09-20T19:21:31.964Z,13.80
2017-09-20T19:23:59.472Z,15.13
2017-09-20T19:26:27.189Z,13.55
2017-09-20T19:28:54.859Z,15.82
2017-09-20T19:31:22.507Z,16.67
2017-09-20T19:33:50.100Z,15.82
2017-09-20T19:36:17.720Z,15.55
2017-09-20T19:38:45.512Z,16.40
2017-09-20T19:41:13.253Z,16.00
2017-09-20T19:43:40.825Z,16.67
2017-09-20T19:46:08.807Z,16.58
2017-09-20T19:48:36.370Z,15.75
2017-09-20T19:51:03.907Z,15.65
2017-09-20T19:53:31.509Z,17.25
2017-09-20T19:55:59.355Z,17.30
2017-09-20T19:58:26.884Z,16.95
2017-09-20T20:00:54.428Z,16.62
2017-09-20T20:03:21.984Z,18.92
2017-09-20T20:05:49.490Z,17.00
2017-09-20T20:08:17.764Z,16.33
2017-09-20T20:10:45.308Z,17.30
2017-09-20T20:13:13.660Z,18.30
2017-09-20T20:15:41.679Z,18.17
2017-09-20T20:18:09.287Z,18.23
2017-09-20T20:20:36.835Z,18.45
2017-09-20T20:23:04.412Z,16.98
2017-09-20T20:25:31.928Z,17.52
2017-09-20T20:27:59.496Z,17.95
2017-09-20T20:30:26.992Z,21.77
2017-09-20T20:32:54.542Z,19.25
2017-09-20T20:35:22.129Z,21.60
2017-09-20T20:37:50.595Z,19.58
2017-09-20T20:40:18.158Z,20.35
2017-09-20T20:42:45.765Z,19.83
2017-09-20T20:45:13.395Z,20.67
2017-09-20T20:47:41.125Z,19.80
2017-09-20T20:50:08.733Z,18.37
2017-09-20T20:52:36.441Z,20.65
2017-09-20T20:55:04.250Z,20.27
2017-09-20T20:57:32.739Z,20.55
2017-09-20T21:00:00.283Z,18.75
2017-09-20T21:02:27.867Z,19.42
2017-09-20T21:04:55.493Z,17.10
2017-09-20T21:07:23.044Z,21.70
2017-09-20T21:09:50.646Z,18.80
2017-09-20T21:12:18.277Z,20.17
2017-09-20T21:14:46.687Z,20.33
2017-09-20T21:17:14.206Z,19.40
2017-09-20T21:19:41.704Z,19.90
2017-09-20T21:22:09.309Z,19.27
2017-09-20T21:24:36.823Z,19.17
2017-09-20T21:27:04.340Z,19.23
2017-09-20T21:29:31.851Z,19.60
2017-09-20T21:31:59.387Z,20.80
2017-09-20T21:34:27.664Z,18.42
2017-09-20T21:36:55.212Z,20.37
2017-09-20T21:39:22.761Z,21.25
2017-09-20T21:41:50.292Z,19.50
2017-09-20T21:44:17.786Z,20.65
2017-09-20T21:46:45.328Z,21.17
2017-09-20T21:49:12.826Z,21.60
2017-09-20T21:51:40.318Z,21.48
2017-09-20T21:54:07.825Z,24.12
2017-09-20T21:56:35.384Z,22.20
2017-09-20T21:59:02.909Z,23.05
2017-09-20T22:01:30.404Z,22.37
2017-09-20T22:03:57.908Z,26.65
2017-09-20T22:06:25.396Z,27.35
2017-09-20T22:08:52.878Z,25.65
2017-09-20T22:11:20.402Z,24.48
2017-09-20T22:13:47.905Z,25.58
2017-09-20T22:16:27.098Z,25.55
2017-09-20T22:19:06.409Z,25.15
2017-09-20T22:21:45.462Z,25.88
2017-09-20T22:24:24.769Z,23.73
2017-09-20T22:26:51.781Z,26.75
2017-09-20T22:29:19.391Z,25.25
2017-09-20T22:31:46.885Z,25.05
2017-09-20T22:34:14.403Z,23.80
2017-09-20T22:36:41.892Z,24.55
2017-09-20T22:39:09.432Z,25.60
2017-09-20T22:41:36.971Z,25.05
2017-09-20T22:44:04.526Z,25.70
2017-09-20T22:46:32.085Z,24.10
2017-09-20T22:48:59.705Z,27.37
2017-09-20T22:51:27.216Z,27.20
2017-09-20T22:53:54.724Z,26.73
2017-09-20T22:56:22.289Z,27.67
2017-09-20T22:58:49.812Z,27.92
2017-09-20T23:01:17.309Z,27.15
2017-09-20T23:03:44.799Z,28.17
2017-09-20T23:06:12.300Z,28.65
2017-09-20T23:08:39.813Z,28.80
2017-09-20T23:11:07.320Z,29.35
2017-09-20T23:13:34.824Z,31.42
2017-09-20T23:16:02.335Z,29.55
2017-09-20T23:18:29.843Z,28.85
2017-09-20T23:20:57.359Z,30.17
2017-09-20T23:23:24.852Z,28.15
2017-09-20T23:25:52.354Z,27.15
2017-09-20T23:28:20.605Z,27.70
2017-09-20T23:30:48.085Z,27.92
2017-09-20T23:33:15.579Z,28.85
2017-09-20T23:35:43.085Z,27.90
2017-09-20T23:38:10.575Z,29.85
2017-09-20T23:40:38.065Z,27.98
2017-09-20T23:43:05.552Z,29.00
2017-09-20T23:45:33.043Z,29.15
2017-09-20T23:48:00.527Z,27.80
2017-09-20T23:50:28.008Z,29.30
2017-09-20T23:52:55.512Z,27.40
2017-09-20T23:55:23.751Z,29.40
2017-09-20T23:57:51.241Z,28.23
